Time;durP1;ratioP1;P1;durP2;ratioP2;P2;SDS_P1;SDS_P2;PMS_P1;PMS_P2;Temp;Humidity;BMP_temperature;BMP_pressure;BME280_temperature;BME280_humidity;BME280_pressure;Samples;Min_cycle;Max_cycle;Signal;HPM_P1;HPM_P2
2023/05/15 00:01:04;;;;;;;178.55;11.15;;;;;;;;;;4983152;28;20030;-52
2023/05/15 00:03:30;;;;;;;228.25;13.02;;;;;;;;;;4982754;28;20036;-53
2023/05/15 00:05:55;;;;;;;146.45;9.85;;;;;;;;;;4983965;28;20045;-56
2023/05/15 00:08:21;;;;;;;153.23;10.98;;;;;;;;;;4982488;28;20528;-54
2023/05/15 00:10:46;;;;;;;234.35;12.68;;;;;;;;;;4982331;28;20088;-53
2023/05/15 00:13:11;;;;;;;253.00;13.77;;;;;;;;;;4983394;28;20568;-53
2023/05/15 00:15:37;;;;;;;266.10;13.63;;;;;;;;;;4984363;28;20261;-54
2023/05/15 00:18:02;;;;;;;266.03;14.17;;;;;;;;;;4983507;28;20270;-56
2023/05/15 00:20:27;;;;;;;231.77;12.93;;;;;;;;;;4984587;28;20261;-53
2023/05/15 00:22:52;;;;;;;205.87;11.30;;;;;;;;;;4981405;28;20274;-55
2023/05/15 00:25:18;;;;;;;265.07;13.27;;;;;;;;;;4983348;28;20282;-54
2023/05/15 00:27:43;;;;;;;223.27;12.13;;;;;;;;;;4985226;28;20273;-56
2023/05/15 00:30:09;;;;;;;244.65;12.52;;;;;;;;;;4982524;28;20032;-53
2023/05/15 00:32:34;;;;;;;196.85;11.10;;;;;;;;;;4979726;28;20144;-52
2023/05/15 00:34:59;;;;;;;158.70;10.15;;;;;;;;;;4981806;28;20014;-53
2023/05/15 00:37:24;;;;;;;228.30;12.20;;;;;;;;;;4985245;28;20040;-55
2023/05/15 00:39:50;;;;;;;162.10;10.27;;;;;;;;;;4983295;28;20364;-55
2023/05/15 00:42:16;;;;;;;169.00;10.73;;;;;;;;;;4982485;28;20291;-53
2023/05/15 00:44:42;;;;;;;196.23;10.93;;;;;;;;;;4982089;28;20026;-53
2023/05/15 00:47:09;;;;;;;206.15;11.88;;;;;;;;;;4983538;28;20038;-55
2023/05/15 00:49:34;;;;;;;281.00;13.73;;;;;;;;;;4982655;28;20026;-54
2023/05/15 00:52:02;;;;;;;233.65;12.73;;;;;;;;;;4980132;28;20049;-53
2023/05/15 00:54:27;;;;;;;233.65;12.23;;;;;;;;;;4984801;28;20567;-53
2023/05/15 00:56:55;;;;;;;240.95;12.50;;;;;;;;;;4981991;28;21691;-54
2023/05/15 00:59:20;;;;;;;222.70;12.30;;;;;;;;;;4982813;28;20022;-53
2023/05/15 01:01:45;;;;;;;287.80;13.55;;;;;;;;;;4985954;28;20052;-54
2023/05/15 01:04:11;;;;;;;268.38;13.30;;;;;;;;;;4983319;28;20030;-53
2023/05/15 01:06:36;;;;;;;247.35;12.50;;;;;;;;;;4979634;28;20688;-53
2023/05/15 01:09:02;;;;;;;311.80;14.30;;;;;;;;;;4985840;28;20334;-52
2023/05/15 01:11:34;;;;;;;260.77;13.25;;;;;;;;;;4981238;28;20731;-53
2023/05/15 01:14:06;;;;;;;262.75;12.93;;;;;;;;;;4981833;28;20022;-56
2023/05/15 01:16:32;;;;;;;306.55;14.98;;;;;;;;;;4984483;28;20123;-56
2023/05/15 01:18:57;;;;;;;268.52;12.95;;;;;;;;;;4979875;28;20455;-54
2023/05/15 01:21:25;;;;;;;264.73;13.20;;;;;;;;;;4986773;28;20847;-55
2023/05/15 01:23:53;;;;;;;281.20;13.93;;;;;;;;;;4993122;28;20272;-53
2023/05/15 01:26:33;;;;;;;241.63;12.73;;;;;;;;;;4981325;28;20042;-53
2023/05/15 01:29:01;;;;;;;175.45;10.80;;;;;;;;;;4983892;28;20022;-56
2023/05/15 01:31:30;;;;;;;195.60;11.50;;;;;;;;;;4980951;28;20037;-53
2023/05/15 01:33:58;;;;;;;215.20;11.48;;;;;;;;;;4979511;28;20499;-55
2023/05/15 01:36:32;;;;;;;184.05;10.80;;;;;;;;;;4986074;28;20045;-55
2023/05/15 01:38:59;;;;;;;209.35;11.52;;;;;;;;;;4982366;28;20029;-55
2023/05/15 01:41:40;;;;;;;222.25;11.82;;;;;;;;;;4982483;28;20045;-53
2023/05/15 01:44:07;;;;;;;241.63;12.93;;;;;;;;;;4983613;28;20016;-55
2023/05/15 01:46:35;;;;;;;281.75;14.38;;;;;;;;;;4981887;28;20042;-54
2023/05/15 01:49:02;;;;;;;259.13;13.30;;;;;;;;;;4980528;28;20841;-55
2023/05/15 01:51:28;;;;;;;231.70;12.45;;;;;;;;;;4981157;28;20034;-53
2023/05/15 01:53:55;;;;;;;309.98;14.75;;;;;;;;;;4980255;28;20037;-55
2023/05/15 01:56:21;;;;;;;209.93;11.93;;;;;;;;;;4981848;28;20075;-54
2023/05/15 01:58:47;;;;;;;251.93;12.90;;;;;;;;;;4981606;28;20049;-53
2023/05/15 02:01:12;;;;;;;273.45;13.48;;;;;;;;;;4981649;28;20281;-55
2023/05/15 02:03:38;;;;;;;260.10;12.95;;;;;;;;;;4976632;28;20041;-56
2023/05/15 02:06:04;;;;;;;266.75;12.52;;;;;;;;;;4982050;28;20581;-56
2023/05/15 02:08:30;;;;;;;264.27;12.88;;;;;;;;;;4981311;28;20027;-55
2023/05/15 02:10:57;;;;;;;225.98;12.23;;;;;;;;;;4985608;28;20058;-54
2023/05/15 02:13:23;;;;;;;255.23;12.90;;;;;;;;;;4981789;28;20556;-55
2023/05/15 02:15:48;;;;;;;230.10;12.27;;;;;;;;;;4978454;28;20509;-53
2023/05/15 02:18:13;;;;;;;203.38;10.95;;;;;;;;;;4980798;28;20030;-54
2023/05/15 02:20:39;;;;;;;170.07;10.32;;;;;;;;;;4983692;28;20051;-54
2023/05/15 02:23:04;;;;;;;179.93;10.52;;;;;;;;;;4982600;28;20037;-54
2023/05/15 02:25:47;;;;;;;184.07;10.43;;;;;;;;;;4982527;28;20139;-54
2023/05/15 02:28:18;;;;;;;221.50;11.55;;;;;;;;;;4980007;28;20076;-53
2023/05/15 02:30:52;;;;;;;284.25;13.80;;;;;;;;;;4980002;28;20574;-56
2023/05/15 02:33:20;;;;;;;190.68;11.93;;;;;;;;;;4979759;28;20107;-53
2023/05/15 02:36:06;;;;;;;200.07;11.38;;;;;;;;;;4978159;28;20026;-53
2023/05/15 02:38:45;;;;;;;222.60;11.90;;;;;;;;;;4984036;28;20091;-56
2023/05/15 02:41:10;;;;;;;165.93;10.65;;;;;;;;;;4979283;28;20034;-55
2023/05/15 02:43:37;;;;;;;195.77;10.77;;;;;;;;;;4978050;28;20400;-53
2023/05/15 02:46:03;;;;;;;234.45;12.13;;;;;;;;;;4983620;28;20116;-54
2023/05/15 02:48:28;;;;;;;287.63;13.68;;;;;;;;;;4981916;28;20022;-53
2023/05/15 02:50:54;;;;;;;245.30;12.40;;;;;;;;;;4988114;28;20052;-55
2023/05/15 02:53:19;;;;;;;234.82;12.18;;;;;;;;;;4980460;28;20409;-55
2023/05/15 02:55:44;;;;;;;227.38;11.82;;;;;;;;;;4985875;28;20039;-55
2023/05/15 02:58:10;;;;;;;248.57;12.73;;;;;;;;;;4982735;28;20556;-56
2023/05/15 03:00:35;;;;;;;279.17;13.07;;;;;;;;;;4988239;28;20662;-54
2023/05/15 03:03:00;;;;;;;222.48;11.80;;;;;;;;;;4981563;28;20117;-54
2023/05/15 03:05:25;;;;;;;229.27;12.27;;;;;;;;;;4981814;28;20030;-53
2023/05/15 03:07:51;;;;;;;194.50;11.63;;;;;;;;;;4985338;28;20102;-52
2023/05/15 03:10:16;;;;;;;133.07;9.30;;;;;;;;;;4982366;28;20053;-54
2023/05/15 03:12:41;;;;;;;190.85;10.55;;;;;;;;;;4985935;28;20015;-53
2023/05/15 03:15:07;;;;;;;168.65;9.82;;;;;;;;;;4981139;28;20457;-54
2023/05/15 03:17:32;;;;;;;214.70;11.60;;;;;;;;;;4982229;28;20033;-54
2023/05/15 03:19:57;;;;;;;179.87;10.40;;;;;;;;;;4980334;28;20324;-54
2023/05/15 03:22:23;;;;;;;216.73;12.25;;;;;;;;;;4986005;28;20333;-55
2023/05/15 03:24:48;;;;;;;249.90;12.00;;;;;;;;;;4981710;28;20022;-55
2023/05/15 03:27:14;;;;;;;256.98;12.63;;;;;;;;;;4981622;28;20276;-53
2023/05/15 03:29:39;;;;;;;258.35;12.57;;;;;;;;;;4985108;28;20029;-53
2023/05/15 03:32:04;;;;;;;271.05;13.02;;;;;;;;;;4985705;28;20042;-53
2023/05/15 03:34:30;;;;;;;289.27;13.50;;;;;;;;;;4980786;28;20026;-53
2023/05/15 03:36:55;;;;;;;255.90;12.13;;;;;;;;;;4979653;28;20050;-55
2023/05/15 03:39:20;;;;;;;202.03;11.47;;;;;;;;;;4982634;28;20018;-52
2023/05/15 03:41:45;;;;;;;243.70;12.67;;;;;;;;;;4985468;28;20812;-56
2023/05/15 03:44:11;;;;;;;190.57;11.23;;;;;;;;;;4981735;28;20420;-53
2023/05/15 03:46:36;;;;;;;179.45;10.77;;;;;;;;;;4981860;28;20281;-53
2023/05/15 03:49:01;;;;;;;171.77;9.97;;;;;;;;;;4981533;28;20072;-53
2023/05/15 03:51:26;;;;;;;204.93;11.27;;;;;;;;;;4990402;28;20645;-53
2023/05/15 03:53:52;;;;;;;256.98;12.40;;;;;;;;;;4981946;28;20037;-54
2023/05/15 03:56:17;;;;;;;202.23;11.30;;;;;;;;;;4980370;28;20033;-55
2023/05/15 03:58:42;;;;;;;217.52;11.02;;;;;;;;;;4982176;28;20099;-55
2023/05/15 04:01:07;;;;;;;245.95;12.43;;;;;;;;;;4981313;28;20038;-54
2023/05/15 04:03:33;;;;;;;321.50;14.45;;;;;;;;;;4979248;28;20801;-56
2023/05/15 04:05:58;;;;;;;272.73;12.67;;;;;;;;;;4979500;28;20042;-55
2023/05/15 04:08:23;;;;;;;209.23;11.35;;;;;;;;;;4982295;28;20269;-54
2023/05/15 04:10:48;;;;;;;253.65;12.50;;;;;;;;;;4982301;28;20446;-54
2023/05/15 04:13:14;;;;;;;221.68;11.88;;;;;;;;;;4981661;28;20034;-52
2023/05/15 04:15:39;;;;;;;201.32;11.40;;;;;;;;;;4981303;28;20503;-56
2023/05/15 04:18:05;;;;;;;221.52;11.07;;;;;;;;;;4981362;28;20018;-54
2023/05/15 04:20:30;;;;;;;161.25;9.98;;;;;;;;;;4979868;28;20064;-54
2023/05/15 04:22:56;;;;;;;203.07;12.95;;;;;;;;;;4970020;28;20496;-54
2023/05/15 04:25:21;;;;;;;176.80;10.85;;;;;;;;;;4979874;28;20128;-52
2023/05/15 04:27:48;;;;;;;176.23;10.43;;;;;;;;;;4985344;28;20968;-54
2023/05/15 04:30:13;;;;;;;213.93;11.38;;;;;;;;;;4982589;28;20618;-57
2023/05/15 04:32:38;;;;;;;220.90;11.30;;;;;;;;;;4980005;28;20025;-51
2023/05/15 04:35:05;;;;;;;276.45;13.13;;;;;;;;;;4981001;28;20037;-51
2023/05/15 04:37:30;;;;;;;282.20;13.05;;;;;;;;;;4983222;28;20128;-54
2023/05/15 04:39:56;;;;;;;229.35;11.48;;;;;;;;;;4982352;28;20027;-53
2023/05/15 04:42:21;;;;;;;260.52;12.52;;;;;;;;;;4977839;28;20034;-53
2023/05/15 04:44:46;;;;;;;244.15;12.10;;;;;;;;;;4982232;28;20119;-51
2023/05/15 04:47:11;;;;;;;259.08;14.57;;;;;;;;;;4979033;28;20136;-53
2023/05/15 04:49:37;;;;;;;279.20;14.23;;;;;;;;;;4981090;28;20136;-54
2023/05/15 04:52:02;;;;;;;227.13;12.13;;;;;;;;;;4981512;28;20040;-52
2023/05/15 04:54:28;;;;;;;236.98;12.77;;;;;;;;;;4979948;28;20398;-55
2023/05/15 04:56:53;;;;;;;187.10;11.50;;;;;;;;;;4979384;28;20030;-52
2023/05/15 04:59:18;;;;;;;169.63;10.95;;;;;;;;;;4983644;28;20114;-53
2023/05/15 05:01:44;;;;;;;250.33;12.70;;;;;;;;;;4983583;28;20038;-54
2023/05/15 05:04:09;;;;;;;187.32;10.90;;;;;;;;;;4986933;28;20288;-54
2023/05/15 05:06:34;;;;;;;194.50;11.18;;;;;;;;;;4979038;28;20129;-54
2023/05/15 05:08:59;;;;;;;268.75;13.68;;;;;;;;;;4981398;28;20033;-52
2023/05/15 05:11:25;;;;;;;230.60;12.77;;;;;;;;;;4980974;28;20069;-55
2023/05/15 05:13:50;;;;;;;331.03;15.83;;;;;;;;;;4981793;28;20368;-53
2023/05/15 05:16:15;;;;;;;260.02;13.57;;;;;;;;;;4982059;28;20273;-52
2023/05/15 05:18:40;;;;;;;248.67;12.93;;;;;;;;;;4978966;28;20018;-54
2023/05/15 05:21:06;;;;;;;251.80;13.40;;;;;;;;;;4981752;28;20269;-54
2023/05/15 05:23:31;;;;;;;253.30;12.80;;;;;;;;;;4980939;28;20261;-53
2023/05/15 05:25:57;;;;;;;209.27;11.57;;;;;;;;;;4979254;28;20034;-53
2023/05/15 05:28:22;;;;;;;209.52;11.35;;;;;;;;;;4983445;28;20499;-52
2023/05/15 05:30:48;;;;;;;195.80;10.82;;;;;;;;;;4983346;28;20060;-52
2023/05/15 05:33:13;;;;;;;152.20;9.90;;;;;;;;;;4977135;28;20022;-53
2023/05/15 05:35:39;;;;;;;235.80;12.63;;;;;;;;;;4977265;28;20457;-53
2023/05/15 05:38:04;;;;;;;202.65;12.77;;;;;;;;;;4983973;28;20062;-55
2023/05/15 05:40:29;;;;;;;189.25;11.32;;;;;;;;;;4982552;28;20038;-54
2023/05/15 05:42:58;;;;;;;246.70;13.13;;;;;;;;;;4980475;28;20018;-53
2023/05/15 05:45:24;;;;;;;190.90;11.73;;;;;;;;;;4981044;28;20140;-53
2023/05/15 05:47:49;;;;;;;267.42;13.05;;;;;;;;;;4977816;28;20042;-54
2023/05/15 05:50:14;;;;;;;229.38;11.90;;;;;;;;;;4983642;28;20086;-53
2023/05/15 05:52:39;;;;;;;216.87;10.50;;;;;;;;;;4965101;28;20313;-53
2023/05/15 05:55:05;;;;;;;278.83;12.48;;;;;;;;;;4977345;28;20368;-53
2023/05/15 05:57:30;;;;;;;226.60;10.90;;;;;;;;;;4980044;28;20049;-56
2023/05/15 05:59:56;;;;;;;244.80;12.15;;;;;;;;;;4985056;28;20018;-53
2023/05/15 06:02:21;;;;;;;273.48;12.95;;;;;;;;;;4976365;28;20031;-53
2023/05/15 06:04:46;;;;;;;160.60;9.70;;;;;;;;;;4978101;28;20019;-51
2023/05/15 06:07:11;;;;;;;181.37;10.53;;;;;;;;;;4977044;28;20295;-54
2023/05/15 06:09:37;;;;;;;164.10;9.80;;;;;;;;;;4980780;28;20318;-54
2023/05/15 06:12:03;;;;;;;161.90;10.43;;;;;;;;;;4980419;28;20066;-55
2023/05/15 06:14:29;;;;;;;227.40;11.90;;;;;;;;;;4978152;28;20542;-54
2023/05/15 06:16:54;;;;;;;203.43;10.75;;;;;;;;;;4981866;28;20039;-52
2023/05/15 06:19:20;;;;;;;219.80;12.10;;;;;;;;;;4977174;28;20513;-52
2023/05/15 06:21:45;;;;;;;275.48;12.73;;;;;;;;;;4980207;28;20030;-53
2023/05/15 06:24:11;;;;;;;232.80;12.53;;;;;;;;;;4981936;28;20403;-53
2023/05/15 06:26:36;;;;;;;222.67;11.87;;;;;;;;;;4985790;28;20054;-54
2023/05/15 06:29:01;;;;;;;245.37;12.83;;;;;;;;;;4983861;28;20300;-53
2023/05/15 06:31:26;;;;;;;254.15;13.45;;;;;;;;;;4983102;28;20273;-55
2023/05/15 06:33:52;;;;;;;272.83;14.03;;;;;;;;;;4978416;28;20061;-54
2023/05/15 06:36:17;;;;;;;169.47;10.80;;;;;;;;;;4983672;28;20137;-52
2023/05/15 06:38:42;;;;;;;141.85;10.20;;;;;;;;;;4982079;28;20261;-53
2023/05/15 06:41:07;;;;;;;169.00;10.47;;;;;;;;;;4981868;28;20034;-53
2023/05/15 06:43:33;;;;;;;170.43;9.90;;;;;;;;;;4981468;28;20030;-54
2023/05/15 06:45:58;;;;;;;152.57;10.10;;;;;;;;;;4980470;28;20349;-54
2023/05/15 06:48:23;;;;;;;190.47;11.27;;;;;;;;;;4982745;28;20029;-55
2023/05/15 06:50:48;;;;;;;178.70;11.03;;;;;;;;;;4982535;28;20658;-56
2023/05/15 06:53:14;;;;;;;232.80;12.93;;;;;;;;;;4982102;28;20033;-56
2023/05/15 06:55:39;;;;;;;203.98;11.35;;;;;;;;;;4982693;28;20094;-55
2023/05/15 06:58:04;;;;;;;224.50;12.33;;;;;;;;;;4982537;28;20071;-56
2023/05/15 07:00:29;;;;;;;224.73;12.63;;;;;;;;;;4982089;28;20762;-55
2023/05/15 07:02:55;;;;;;;203.90;12.13;;;;;;;;;;4981604;28;20026;-53
2023/05/15 07:05:20;;;;;;;135.57;9.40;;;;;;;;;;4981172;28;20079;-56
2023/05/15 07:07:46;;;;;;;190.55;11.00;;;;;;;;;;4982057;28;20284;-53
2023/05/15 07:10:11;;;;;;;157.80;10.32;;;;;;;;;;4981046;28;20470;-53
2023/05/15 07:12:36;;;;;;;179.60;10.93;;;;;;;;;;4980060;28;20033;-55
2023/05/15 07:15:02;;;;;;;140.93;9.87;;;;;;;;;;4981777;28;20725;-55
2023/05/15 07:17:27;;;;;;;165.35;10.38;;;;;;;;;;4978481;28;20262;-53
2023/05/15 07:19:52;;;;;;;167.00;10.83;;;;;;;;;;4982621;28;20502;-53
2023/05/15 07:22:17;;;;;;;118.97;8.50;;;;;;;;;;4980108;28;20393;-53
2023/05/15 07:24:43;;;;;;;186.87;11.10;;;;;;;;;;4981017;28;20026;-55
2023/05/15 07:27:08;;;;;;;202.57;11.47;;;;;;;;;;4981589;28;20137;-53
2023/05/15 07:29:33;;;;;;;231.87;12.30;;;;;;;;;;4982501;28;20099;-53
2023/05/15 07:31:58;;;;;;;260.13;12.67;;;;;;;;;;4981665;28;20030;-54
2023/05/15 07:34:24;;;;;;;204.43;10.70;;;;;;;;;;4980950;28;20034;-54
2023/05/15 07:36:49;;;;;;;181.88;9.98;;;;;;;;;;4981290;28;20045;-55
2023/05/15 07:39:14;;;;;;;226.43;11.57;;;;;;;;;;4980225;28;20379;-52
2023/05/15 07:41:40;;;;;;;190.93;10.30;;;;;;;;;;4982558;28;20261;-54
2023/05/15 07:44:05;;;;;;;178.30;9.30;;;;;;;;;;4980269;28;20030;-55
2023/05/15 07:46:30;;;;;;;161.07;9.20;;;;;;;;;;4981136;28;20104;-55
2023/05/15 07:48:56;;;;;;;135.97;8.27;;;;;;;;;;4981439;28;20107;-56
2023/05/15 07:51:21;;;;;;;130.70;7.77;;;;;;;;;;4981030;28;20393;-54
2023/05/15 07:53:46;;;;;;;193.03;10.07;;;;;;;;;;4982550;28;20427;-52
2023/05/15 07:56:11;;;;;;;146.03;8.50;;;;;;;;;;4979563;28;20340;-53
2023/05/15 07:58:37;;;;;;;179.43;9.43;;;;;;;;;;4983270;28;20464;-55
2023/05/15 08:01:02;;;;;;;216.43;11.02;;;;;;;;;;4980415;28;20268;-55
2023/05/15 08:03:28;;;;;;;226.63;11.30;;;;;;;;;;4982496;28;20416;-52
2023/05/15 08:05:53;;;;;;;252.63;11.85;;;;;;;;;;4979610;28;20034;-52
2023/05/15 08:08:18;;;;;;;201.77;10.47;;;;;;;;;;4981138;28;20025;-53
2023/05/15 08:10:43;;;;;;;230.17;11.37;;;;;;;;;;4977966;28;20050;-52
2023/05/15 08:13:08;;;;;;;216.00;10.83;;;;;;;;;;4981114;28;20029;-53
2023/05/15 08:15:34;;;;;;;204.57;10.13;;;;;;;;;;4980554;28;20026;-52
2023/05/15 08:17:59;;;;;;;149.80;8.27;;;;;;;;;;4981569;28;20030;-54
2023/05/15 08:20:24;;;;;;;179.02;9.10;;;;;;;;;;4982582;28;20278;-56
2023/05/15 08:22:50;;;;;;;131.40;8.10;;;;;;;;;;4982176;28;20030;-52
2023/05/15 08:25:15;;;;;;;141.47;8.20;;;;;;;;;;4980012;28;20034;-54
2023/05/15 08:27:40;;;;;;;132.75;7.47;;;;;;;;;;4982772;28;20247;-53
2023/05/15 08:30:06;;;;;;;189.83;9.70;;;;;;;;;;4980784;28;20084;-52
2023/05/15 08:32:31;;;;;;;215.15;10.57;;;;;;;;;;4978812;28;20125;-53
2023/05/15 08:34:57;;;;;;;226.70;11.30;;;;;;;;;;4978730;28;20285;-55
2023/05/15 08:37:22;;;;;;;204.15;10.13;;;;;;;;;;4980008;28;20118;-53
2023/05/15 08:39:47;;;;;;;209.65;9.90;;;;;;;;;;4980315;28;20571;-55
2023/05/15 08:42:32;;;;;;;217.53;10.47;;;;;;;;;;4979658;28;20029;-54
2023/05/15 08:44:58;;;;;;;148.68;8.35;;;;;;;;;;4981665;28;20915;-54
2023/05/15 08:47:25;;;;;;;121.57;7.40;;;;;;;;;;4980371;28;20038;-53
2023/05/15 08:49:59;;;;;;;120.93;7.53;;;;;;;;;;4981501;28;20465;-54
2023/05/15 08:52:25;;;;;;;180.20;8.95;;;;;;;;;;4980996;28;20460;-55
2023/05/15 08:54:51;;;;;;;135.32;7.70;;;;;;;;;;4979203;28;20514;-52
2023/05/15 08:57:16;;;;;;;172.93;8.95;;;;;;;;;;4980453;28;20081;-52
2023/05/15 08:59:42;;;;;;;126.78;7.55;;;;;;;;;;4980611;28;20038;-53
2023/05/15 09:02:07;;;;;;;154.25;8.55;;;;;;;;;;4978814;28;20349;-54
2023/05/15 09:04:32;;;;;;;150.87;8.43;;;;;;;;;;4979807;28;20198;-55
2023/05/15 09:07:01;;;;;;;177.13;9.27;;;;;;;;;;4979225;28;20155;-52
2023/05/15 09:09:28;;;;;;;145.95;7.90;;;;;;;;;;4979679;28;20164;-53
2023/05/15 09:11:53;;;;;;;149.23;7.97;;;;;;;;;;4977709;28;20061;-56
2023/05/15 09:14:19;;;;;;;171.82;8.85;;;;;;;;;;4980482;28;20383;-55
2023/05/15 09:16:45;;;;;;;235.07;10.70;;;;;;;;;;4977671;28;20034;-52
2023/05/15 09:19:11;;;;;;;248.27;11.48;;;;;;;;;;4980273;28;20376;-55
2023/05/15 09:21:36;;;;;;;258.33;11.30;;;;;;;;;;4981283;28;20053;-56
2023/05/15 09:24:15;;;;;;;251.33;11.50;;;;;;;;;;4978189;28;20513;-54
2023/05/15 09:26:41;;;;;;;149.57;8.02;;;;;;;;;;4977705;28;20038;-54
2023/05/15 09:29:06;;;;;;;181.85;8.95;;;;;;;;;;4980772;28;20384;-52
2023/05/15 09:31:32;;;;;;;136.23;7.78;;;;;;;;;;4977781;28;20149;-52
2023/05/15 09:34:00;;;;;;;259.58;11.60;;;;;;;;;;4979967;28;20404;-55
2023/05/15 09:36:25;;;;;;;195.32;9.75;;;;;;;;;;4979161;28;20038;-55
2023/05/15 09:38:56;;;;;;;224.80;10.50;;;;;;;;;;4980247;28;20021;-52
2023/05/15 09:41:23;;;;;;;152.13;8.05;;;;;;;;;;4980466;28;20559;-55
2023/05/15 09:43:48;;;;;;;237.68;10.50;;;;;;;;;;4979019;28;20026;-52
2023/05/15 09:46:15;;;;;;;212.70;9.77;;;;;;;;;;4978409;28;20033;-53
2023/05/15 09:48:41;;;;;;;224.50;10.30;;;;;;;;;;4980325;28;20698;-53
2023/05/15 09:51:13;;;;;;;231.93;10.68;;;;;;;;;;4978855;28;20045;-53
2023/05/15 09:53:38;;;;;;;204.55;9.73;;;;;;;;;;4975774;28;20057;-55
2023/05/15 09:56:03;;;;;;;230.60;10.10;;;;;;;;;;4982173;28;20611;-54
2023/05/15 09:58:29;;;;;;;226.98;10.25;;;;;;;;;;4982477;28;20097;-55
2023/05/15 10:00:58;;;;;;;245.77;10.82;;;;;;;;;;4982216;28;20037;-56
2023/05/15 10:03:23;;;;;;;215.10;9.65;;;;;;;;;;4982836;28;20022;-53
2023/05/15 10:05:48;;;;;;;222.40;10.23;;;;;;;;;;4982115;28;20676;-55
2023/05/15 10:08:16;;;;;;;246.97;10.73;;;;;;;;;;4983150;28;20037;-52
2023/05/15 10:10:42;;;;;;;253.38;10.88;;;;;;;;;;4981471;28;20269;-53
2023/05/15 10:13:08;;;;;;;231.63;10.27;;;;;;;;;;4980645;28;20023;-55
2023/05/15 10:15:34;;;;;;;223.77;9.88;;;;;;;;;;4981764;28;20138;-52
2023/05/15 10:18:00;;;;;;;188.90;8.38;;;;;;;;;;4983844;28;20396;-53
2023/05/15 10:20:25;;;;;;;172.43;8.48;;;;;;;;;;4981919;28;20492;-52
2023/05/15 10:22:52;;;;;;;155.73;8.25;;;;;;;;;;4981735;28;20038;-52
2023/05/15 10:25:31;;;;;;;146.85;8.02;;;;;;;;;;4982065;28;20430;-53
2023/05/15 10:27:56;;;;;;;207.52;9.68;;;;;;;;;;4983963;28;20038;-52
2023/05/15 10:30:23;;;;;;;232.48;10.75;;;;;;;;;;4981672;28;20040;-55
2023/05/15 10:32:48;;;;;;;191.00;8.57;;;;;;;;;;4981279;28;20026;-54
2023/05/15 10:35:14;;;;;;;218.85;9.07;;;;;;;;;;4982371;28;20018;-54
2023/05/15 10:37:39;;;;;;;188.75;8.90;;;;;;;;;;4981457;28;20025;-52
2023/05/15 10:40:05;;;;;;;175.07;8.55;;;;;;;;;;4981654;28;20028;-52
2023/05/15 10:42:31;;;;;;;225.27;9.85;;;;;;;;;;4980164;28;20163;-52
2023/05/15 10:44:58;;;;;;;176.52;8.68;;;;;;;;;;4983175;28;20143;-53
2023/05/15 10:47:24;;;;;;;166.32;7.50;;;;;;;;;;4981035;28;20034;-52
2023/05/15 10:49:50;;;;;;;167.98;8.05;;;;;;;;;;4979681;28;20111;-51
2023/05/15 10:52:15;;;;;;;171.75;9.05;;;;;;;;;;4963514;28;20049;-52
2023/05/15 10:54:40;;;;;;;190.20;8.70;;;;;;;;;;4980473;28;20482;-52
2023/05/15 10:57:07;;;;;;;186.40;8.38;;;;;;;;;;4980210;28;20043;-52
2023/05/15 10:59:32;;;;;;;197.45;8.63;;;;;;;;;;4982416;28;20026;-53
2023/05/15 11:02:18;;;;;;;254.38;10.57;;;;;;;;;;4982166;28;20094;-54
2023/05/15 11:04:43;;;;;;;242.90;9.77;;;;;;;;;;4980085;28;20622;-53
2023/05/15 11:07:13;;;;;;;197.90;8.73;;;;;;;;;;4978277;28;20238;-56
2023/05/15 11:09:39;;;;;;;253.77;10.27;;;;;;;;;;4982163;28;20023;-55
2023/05/15 11:12:05;;;;;;;247.60;10.27;;;;;;;;;;4981517;28;20043;-56
2023/05/15 11:14:50;;;;;;;216.93;9.38;;;;;;;;;;4979343;28;20030;-53
2023/05/15 11:17:16;;;;;;;219.13;9.23;;;;;;;;;;4979280;28;20290;-53
2023/05/15 11:19:47;;;;;;;229.50;9.90;;;;;;;;;;4982554;28;20211;-54
2023/05/15 11:22:19;;;;;;;186.02;8.63;;;;;;;;;;4981163;28;20153;-54
2023/05/15 11:24:45;;;;;;;;;;;;;;;;;;4982032;28;20053;-53
2023/05/15 11:27:11;;;;;;;172.70;8.43;;;;;;;;;;4982018;28;20689;-53
2023/05/15 11:29:37;;;;;;;189.38;9.00;;;;;;;;;;4981153;28;20026;-54
2023/05/15 11:32:02;;;;;;;164.60;7.80;;;;;;;;;;4981248;28;20905;-54
2023/05/15 11:34:29;;;;;;;204.85;9.23;;;;;;;;;;4979905;28;20023;-54
2023/05/15 11:36:54;;;;;;;186.40;8.57;;;;;;;;;;4980573;28;20204;-54
2023/05/15 11:39:22;;;;;;;185.88;8.63;;;;;;;;;;4979784;28;20273;-53
2023/05/15 11:41:48;;;;;;;293.40;12.13;;;;;;;;;;4979570;28;20057;-55
2023/05/15 11:44:18;;;;;;;225.30;9.95;;;;;;;;;;4978807;28;20469;-53
2023/05/15 11:46:43;;;;;;;187.45;8.75;;;;;;;;;;4980112;28;20406;-55
2023/05/15 11:49:09;;;;;;;218.35;9.70;;;;;;;;;;4979886;28;20510;-54
2023/05/15 11:51:35;;;;;;;224.52;9.70;;;;;;;;;;4980757;28;20551;-54
2023/05/15 11:54:01;;;;;;;226.52;10.15;;;;;;;;;;4980348;28;20442;-52
2023/05/15 11:56:29;;;;;;;220.43;9.73;;;;;;;;;;4982672;28;20657;-55
2023/05/15 11:58:56;;;;;;;217.15;10.18;;;;;;;;;;4981191;28;20789;-53
2023/05/15 12:01:21;;;;;;;221.88;9.65;;;;;;;;;;4979125;28;20067;-52
2023/05/15 12:03:47;;;;;;;314.67;13.32;;;;;;;;;;4979387;28;20113;-53
2023/05/15 12:06:13;;;;;;;282.35;11.68;;;;;;;;;;4979215;28;20473;-55
2023/05/15 12:08:38;;;;;;;246.48;10.18;;;;;;;;;;4980572;28;20490;-54
2023/05/15 12:11:03;;;;;;;237.40;10.35;;;;;;;;;;4966056;28;20050;-62
2023/05/15 12:13:30;;;;;;;237.05;10.32;;;;;;;;;;4979687;28;20113;-55
2023/05/15 12:15:55;;;;;;;203.98;9.25;;;;;;;;;;4978628;28;20596;-52
2023/05/15 12:18:21;;;;;;;176.95;8.35;;;;;;;;;;4979735;28;20028;-54
2023/05/15 12:20:47;;;;;;;204.48;9.15;;;;;;;;;;4981378;28;20041;-53
2023/05/15 12:23:15;;;;;;;138.52;7.97;;;;;;;;;;4981028;28;20314;-53
2023/05/15 12:25:41;;;;;;;197.00;8.68;;;;;;;;;;4979953;28;20049;-52
2023/05/15 12:28:06;;;;;;;171.90;8.60;;;;;;;;;;4980120;28;20027;-55
2023/05/15 12:30:32;;;;;;;189.88;9.10;;;;;;;;;;4979403;28;20034;-53
2023/05/15 12:32:59;;;;;;;186.50;8.75;;;;;;;;;;4978597;28;20038;-54
2023/05/15 12:35:25;;;;;;;181.18;9.30;;;;;;;;;;4962808;28;20026;-53
2023/05/15 12:37:50;;;;;;;201.57;8.77;;;;;;;;;;4979195;28;20037;-52
2023/05/15 12:40:19;;;;;;;202.80;9.90;;;;;;;;;;4980721;28;20025;-55
2023/05/15 12:42:44;;;;;;;225.50;10.13;;;;;;;;;;4962192;28;20018;-54
2023/05/15 12:45:19;;;;;;;268.40;11.52;;;;;;;;;;4980472;28;20552;-53
2023/05/15 12:47:45;;;;;;;175.70;8.93;;;;;;;;;;4979909;28;20035;-52
2023/05/15 12:50:17;;;;;;;223.85;10.60;;;;;;;;;;4978961;28;20034;-52
2023/05/15 12:52:49;;;;;;;144.57;8.00;;;;;;;;;;4982759;28;20035;-55
2023/05/15 12:55:18;;;;;;;243.02;11.55;;;;;;;;;;4980336;28;20117;-55
2023/05/15 12:57:43;;;;;;;244.90;11.07;;;;;;;;;;5013658;28;20029;-51
2023/05/15 13:00:13;;;;;;;198.10;9.90;;;;;;;;;;4979688;28;20034;-52
2023/05/15 13:02:41;;;;;;;234.30;10.60;;;;;;;;;;4979516;28;20291;-56
2023/05/15 13:05:06;;;;;;;230.18;10.80;;;;;;;;;;4979124;28;20359;-54
2023/05/15 13:07:32;;;;;;;222.40;10.15;;;;;;;;;;4978452;28;20225;-53
2023/05/15 13:10:01;;;;;;;205.15;10.00;;;;;;;;;;4979709;28;20029;-52
2023/05/15 13:12:26;;;;;;;206.95;9.75;;;;;;;;;;4980143;28;20045;-56
2023/05/15 13:14:51;;;;;;;181.07;9.30;;;;;;;;;;4979052;28;20415;-50
2023/05/15 13:17:17;;;;;;;182.60;9.20;;;;;;;;;;4978619;28;20288;-55
2023/05/15 13:19:42;;;;;;;166.20;8.23;;;;;;;;;;4978935;28;20030;-52
2023/05/15 13:22:07;;;;;;;163.50;8.67;;;;;;;;;;4977721;28;20038;-55
2023/05/15 13:24:32;;;;;;;185.53;9.00;;;;;;;;;;4979470;28;20726;-53
2023/05/15 13:26:58;;;;;;;232.23;10.55;;;;;;;;;;4978403;28;20261;-55
2023/05/15 13:29:23;;;;;;;208.40;9.87;;;;;;;;;;4981172;28;20486;-52
2023/05/15 13:31:48;;;;;;;284.40;12.07;;;;;;;;;;4979835;28;20400;-54
2023/05/15 13:34:14;;;;;;;269.83;10.93;;;;;;;;;;4978412;28;20257;-54
2023/05/15 13:36:39;;;;;;;237.77;10.75;;;;;;;;;;4981761;28;20045;-54
2023/05/15 13:39:05;;;;;;;247.60;10.67;;;;;;;;;;4980710;28;20037;-54
2023/05/15 13:41:30;;;;;;;248.98;10.82;;;;;;;;;;4979251;28;20030;-52
2023/05/15 13:43:55;;;;;;;268.37;11.77;;;;;;;;;;4979453;28;20022;-52
2023/05/15 13:46:21;;;;;;;220.90;10.00;;;;;;;;;;4978968;28;20270;-54
2023/05/15 13:48:46;;;;;;;178.47;9.07;;;;;;;;;;4979191;28;20266;-55
2023/05/15 13:51:11;;;;;;;160.20;8.43;;;;;;;;;;4980180;28;20062;-53
2023/05/15 13:53:36;;;;;;;224.23;10.20;;;;;;;;;;4979667;28;20637;-54
2023/05/15 13:56:02;;;;;;;167.20;8.82;;;;;;;;;;4980028;28;20658;-53
2023/05/15 13:58:27;;;;;;;169.65;8.10;;;;;;;;;;4980569;28;20026;-54
2023/05/15 14:00:52;;;;;;;174.98;8.75;;;;;;;;;;4976652;28;20231;-55
2023/05/15 14:03:18;;;;;;;213.27;9.63;;;;;;;;;;4979971;28;20110;-53